Time;durP1;ratioP1;P1;durP2;ratioP2;P2;SDS_P1;SDS_P2;PMS_P1;PMS_P2;Temp;Humidity;BMP_temperature;BMP_pressure;BME280_temperature;BME280_humidity;BME280_pressure;Samples;Min_cycle;Max_cycle;Signal;HPM_P1;HPM_P2
2023/12/12 00:01:35;;;;;;;7.43;1.90;;;;;;;18.95;41.55;100737.66;16116759;19;131281;-48
2023/12/12 00:06:57;;;;;;;4.18;1.23;;;;;;;;;;16114005;19;130521;-47
2023/12/12 00:12:19;;;;;;;6.93;1.30;;;;;;;18.90;41.72;100729.25;16115264;19;129296;-45
2023/12/12 00:17:41;;;;;;;6.55;1.35;;;;;;;18.88;41.16;100731.44;16116711;19;134786;-49
2023/12/12 00:23:03;;;;;;;6.45;1.48;;;;;;;18.84;41.36;100731.13;16104024;19;130619;-48
2023/12/12 00:28:25;;;;;;;4.95;1.23;;;;;;;18.82;41.32;100729.69;16112794;19;129749;-50
2023/12/12 00:33:47;;;;;;;6.53;1.23;;;;;;;18.79;41.26;100735.72;16113398;19;129539;-47
2023/12/12 00:39:10;;;;;;;7.22;1.65;;;;;;;18.76;41.23;100726.81;16112634;19;131726;-49
2023/12/12 00:44:33;;;;;;;6.63;1.73;;;;;;;18.73;41.54;100721.78;16115396;19;130206;-48
2023/12/12 00:49:55;;;;;;;5.65;1.40;;;;;;;18.70;41.69;100715.91;16114085;19;133590;-46
2023/12/12 00:55:17;;;;;;;8.23;1.20;;;;;;;18.67;41.62;100716.41;16114614;19;129191;-49
2023/12/12 01:00:39;;;;;;;7.20;1.50;;;;;;;18.64;41.59;100709.44;16107691;19;130955;-48
2023/12/12 01:06:02;;;;;;;6.63;1.50;;;;;;;18.61;41.39;100707.16;16110576;19;129645;-48
2023/12/12 01:11:24;;;;;;;5.55;1.13;;;;;;;18.58;41.61;100702.16;16111935;19;130274;-48
2023/12/12 01:16:46;;;;;;;6.15;1.55;;;;;;;18.56;41.39;100707.09;16110630;19;131452;-51
2023/12/12 01:22:08;;;;;;;5.13;1.27;;;;;;;18.54;41.28;100700.97;16108793;19;129482;-51
2023/12/12 01:27:30;;;;;;;3.78;1.20;;;;;;;18.50;41.27;100697.88;16112729;19;129725;-47
2023/12/12 01:32:52;;;;;;;6.38;1.00;;;;;;;18.50;41.54;100719.16;16108204;19;129501;-44
2023/12/12 01:38:14;;;;;;;5.47;1.42;;;;;;;18.47;41.51;100712.22;16107251;19;129474;-47
2023/12/12 01:43:36;;;;;;;5.28;0.90;;;;;;;18.45;41.20;100720.78;16101361;19;130791;-46
2023/12/12 01:48:58;;;;;;;5.00;1.02;;;;;;;18.41;41.69;100719.59;16100920;19;131345;-49
2023/12/12 01:54:21;;;;;;;6.45;1.60;;;;;;;18.41;41.72;100713.19;16112075;19;134028;-47
2023/12/12 01:59:47;;;;;;;4.80;1.02;;;;;;;18.39;41.67;100707.91;16109059;19;129617;-49
2023/12/12 02:05:10;;;;;;;3.50;1.05;;;;;;;18.36;41.73;100711.16;16109924;19;129688;-48
2023/12/12 02:10:33;;;;;;;3.42;1.17;;;;;;;18.34;41.48;100691.16;16107065;19;129644;-50
2023/12/12 02:15:55;;;;;;;4.00;1.10;;;;;;;18.31;41.46;100692.50;16109601;19;130443;-46
2023/12/12 02:21:21;;;;;;;4.25;1.35;;;;;;;18.30;41.25;100677.00;16107486;19;131378;-47
2023/12/12 02:26:42;;;;;;;;;;;;;;;18.25;41.24;100684.38;16108795;19;129896;-47
2023/12/12 02:32:04;;;;;;;3.63;0.98;;;;;;;18.25;41.66;100681.59;16104568;19;131483;-48
2023/12/12 02:37:26;;;;;;;4.38;1.17;;;;;;;18.22;41.34;100676.56;16104907;19;131409;-47
2023/12/12 02:42:51;;;;;;;5.05;1.13;;;;;;;18.21;41.49;100667.41;16109824;19;130361;-54
2023/12/12 02:48:13;;;;;;;2.78;0.88;;;;;;;18.19;41.40;100664.06;16123021;19;130504;-53
2023/12/12 02:53:35;;;;;;;2.70;0.80;;;;;;;18.18;41.26;100667.09;16118115;19;131548;-51
2023/12/12 02:58:57;;;;;;;7.70;1.08;;;;;;;18.17;41.64;100659.88;16125745;19;129783;-52
2023/12/12 03:04:19;;;;;;;3.58;0.80;;;;;;;18.14;41.53;100648.19;16127607;19;129354;-56
2023/12/12 03:09:41;;;;;;;2.78;0.90;;;;;;;18.12;41.57;100628.22;16120874;19;131027;-50
2023/12/12 03:15:04;;;;;;;2.97;1.00;;;;;;;18.12;41.36;100622.69;16122727;19;130748;-57
2023/12/12 03:20:26;;;;;;;3.15;1.00;;;;;;;18.10;41.43;100619.31;16121208;19;131075;-56
2023/12/12 03:25:48;;;;;;;3.22;0.88;;;;;;;18.09;41.65;100609.34;16120113;19;131185;-54
2023/12/12 03:31:10;;;;;;;2.38;0.82;;;;;;;18.08;41.46;100613.22;16121365;19;129854;-57
2023/12/12 03:36:32;;;;;;;4.07;0.80;;;;;;;18.06;41.20;100600.69;16122734;19;130011;-55
2023/12/12 03:41:54;;;;;;;1.13;0.60;;;;;;;18.05;41.18;100583.25;16120634;19;129663;-60
2023/12/12 03:47:16;;;;;;;2.08;0.70;;;;;;;18.04;41.40;100578.81;16122618;19;129983;-52
2023/12/12 03:52:38;;;;;;;2.30;0.80;;;;;;;18.02;41.23;100567.16;16122425;19;130280;-53
2023/12/12 03:58:01;;;;;;;1.85;0.55;;;;;;;18.01;41.57;100554.41;16115169;19;132667;-57
2023/12/12 04:03:22;;;;;;;3.53;0.93;;;;;;;18.00;41.22;100558.25;16119067;19;129648;-53
2023/12/12 04:08:45;;;;;;;2.70;0.70;;;;;;;17.99;41.15;100549.13;16117922;19;131013;-51
2023/12/12 04:14:07;;;;;;;2.45;0.80;;;;;;;17.98;41.10;100538.28;16113867;19;129817;-52
2023/12/12 04:19:29;;;;;;;2.13;0.75;;;;;;;17.96;41.29;100527.47;16116047;19;130619;-52
2023/12/12 04:24:51;;;;;;;2.60;0.70;;;;;;;17.96;41.42;100530.25;16115525;19;129604;-54
2023/12/12 04:30:13;;;;;;;3.28;0.70;;;;;;;17.95;41.55;100522.22;16113972;19;130031;-53
2023/12/12 04:35:35;;;;;;;2.05;0.80;;;;;;;17.94;41.09;100526.88;16116420;19;129446;-52
2023/12/12 04:40:57;;;;;;;1.50;0.70;;;;;;;17.92;41.38;100531.00;16113938;19;131982;-56
2023/12/12 04:46:20;;;;;;;1.98;0.60;;;;;;;17.91;41.28;100532.09;16111344;19;130901;-56
2023/12/12 04:51:42;;;;;;;2.00;0.80;;;;;;;17.90;41.22;100535.94;16111188;19;130805;-56
2023/12/12 04:57:04;;;;;;;3.38;1.00;;;;;;;17.88;41.13;100538.13;16109800;19;129880;-53
2023/12/12 05:02:26;;;;;;;1.92;0.63;;;;;;;17.87;41.24;100533.66;16108667;19;130047;-57
2023/12/12 05:07:48;;;;;;;3.53;0.85;;;;;;;17.86;41.50;100530.09;16108719;19;129324;-50
2023/12/12 05:13:10;;;;;;;2.63;0.90;;;;;;;17.85;41.51;100522.88;16110696;19;131081;-51
2023/12/12 05:18:32;;;;;;;1.17;0.70;;;;;;;17.84;41.56;100522.03;16109493;19;129621;-48
2023/12/12 05:23:55;;;;;;;2.70;0.60;;;;;;;17.83;41.49;100523.13;16112745;19;131143;-46
2023/12/12 05:29:17;;;;;;;2.42;0.70;;;;;;;17.82;41.13;100509.53;16111457;19;131250;-48
2023/12/12 05:34:39;;;;;;;2.40;0.80;;;;;;;17.81;41.31;100517.00;16111027;19;130366;-46
2023/12/12 05:40:02;;;;;;;2.00;0.68;;;;;;;17.80;41.32;100509.78;16107426;19;131349;-48
2023/12/12 05:45:24;;;;;;;3.78;0.75;;;;;;;17.78;41.34;100506.44;16107952;19;129923;-46
2023/12/12 05:50:46;;;;;;;1.65;0.60;;;;;;;17.78;41.15;100495.34;16107373;19;130843;-46
2023/12/12 05:56:09;;;;;;;1.75;0.60;;;;;;;17.77;40.98;100493.69;16110076;19;131045;-48
2023/12/12 06:01:31;;;;;;;3.67;0.68;;;;;;;17.76;41.42;100480.09;16106180;19;130287;-45
2023/12/12 06:06:53;;;;;;;1.90;0.70;;;;;;;17.74;41.36;100477.56;16103962;19;130987;-50
2023/12/12 06:12:17;;;;;;;2.22;0.50;;;;;;;17.97;41.03;100478.50;16101908;19;130802;-51
2023/12/12 06:17:39;;;;;;;1.55;0.55;;;;;;;18.31;40.99;100481.22;16097258;19;130032;-48
2023/12/12 06:23:01;;;;;;;4.70;0.75;;;;;;;18.66;40.58;100471.75;16101140;19;134125;-49
2023/12/12 06:28:23;;;;;;;5.30;1.13;;;;;;;19.03;40.21;100456.38;16097943;19;129991;-45
2023/12/12 06:33:45;;;;;;;7.28;1.08;;;;;;;19.43;39.61;100457.09;16103902;19;129794;-47
2023/12/12 06:39:09;;;;;;;5.72;1.10;;;;;;;19.75;38.95;100446.00;16103598;19;131144;-46
2023/12/12 06:44:32;;;;;;;3.77;0.80;;;;;;;19.93;38.44;100439.19;16105964;19;129711;-47
2023/12/12 06:49:54;;;;;;;2.72;0.75;;;;;;;19.96;38.27;100426.69;16104431;19;129882;-54
2023/12/12 06:55:17;;;;;;;3.97;1.20;;;;;;;19.90;38.53;100420.28;16105243;19;130734;-48
2023/12/12 07:00:42;;;;;;;4.97;0.95;;;;;;;19.82;38.38;100420.75;16103852;19;131028;-49
2023/12/12 07:06:06;;;;;;;5.32;0.80;;;;;;;19.70;38.69;100420.97;16105005;19;130514;-46
2023/12/12 07:11:28;;;;;;;3.30;1.08;;;;;;;19.56;39.04;100406.72;16104878;19;130110;-49
2023/12/12 07:16:50;;;;;;;3.80;1.00;;;;;;;19.44;39.13;100398.56;16105960;19;129576;-47
2023/12/12 07:22:12;;;;;;;5.18;1.15;;;;;;;19.32;39.07;100395.94;16104143;19;130994;-47
2023/12/12 07:27:34;;;;;;;4.93;1.10;;;;;;;19.21;39.47;100391.41;16104758;19;129467;-49
2023/12/12 07:32:57;;;;;;;4.53;0.88;;;;;;;19.10;39.56;100387.69;16122022;19;130189;-51
2023/12/12 07:38:20;;;;;;;7.97;1.08;;;;;;;18.99;39.72;100395.06;16117639;19;130050;-52
2023/12/12 07:43:42;;;;;;;2.45;0.90;;;;;;;18.89;39.51;100393.03;16115292;19;129328;-49
2023/12/12 07:49:05;;;;;;;2.53;0.65;;;;;;;18.80;39.88;100383.50;16116521;19;130035;-47
2023/12/12 07:54:28;;;;;;;2.05;0.70;;;;;;;18.77;39.79;100376.56;16115822;19;129505;-51
2023/12/12 07:59:50;;;;;;;3.55;1.00;;;;;;;18.93;39.40;100376.72;16116246;19;131309;-51
2023/12/12 08:05:12;;;;;;;4.95;1.30;;;;;;;19.28;39.35;100377.34;16116807;19;129449;-49
2023/12/12 08:10:35;;;;;;;3.83;1.23;;;;;;;19.69;38.43;100366.56;16118322;19;129717;-51
2023/12/12 08:15:58;;;;;;;2.95;1.00;;;;;;;20.10;38.06;100371.53;16121482;19;130518;-51
2023/12/12 08:21:20;;;;;;;5.47;0.90;;;;;;;20.42;37.57;100367.81;16117034;19;129779;-51
2023/12/12 08:26:44;;;;;;;6.97;1.20;;;;;;;20.69;37.40;100355.63;16117463;19;129583;-47
2023/12/12 08:32:06;;;;;;;4.95;0.80;;;;;;;20.88;36.69;100351.28;16115453;19;131246;-54
2023/12/12 08:37:28;;;;;;;5.53;1.48;;;;;;;21.08;36.55;100338.50;16115880;19;129437;-53
2023/12/12 08:42:51;;;;;;;7.32;1.10;;;;;;;21.21;36.20;100337.13;16117464;19;129440;-52
2023/12/12 08:48:13;;;;;;;3.80;1.42;;;;;;;21.30;36.29;100315.97;16120460;19;129361;-53
2023/12/12 08:53:36;;;;;;;5.50;1.30;;;;;;;21.34;36.41;100311.53;16121973;19;130398;-52
2023/12/12 08:58:58;;;;;;;5.22;1.02;;;;;;;21.29;36.32;100307.91;16118419;19;130987;-50
2023/12/12 09:04:20;;;;;;;4.13;0.80;;;;;;;21.17;36.57;100306.22;16112876;19;129745;-54
2023/12/12 09:09:42;;;;;;;3.85;1.10;;;;;;;21.02;36.61;100289.56;16114300;19;129402;-54
2023/12/12 09:15:05;;;;;;;5.28;0.90;;;;;;;20.84;36.80;100291.75;16116337;19;130183;-55
2023/12/12 09:20:27;;;;;;;4.25;0.82;;;;;;;20.67;37.07;100294.78;16114488;19;130094;-56
2023/12/12 09:25:49;;;;;;;3.38;0.73;;;;;;;20.49;37.11;100293.34;16112128;19;130548;-53
2023/12/12 09:31:12;;;;;;;2.35;0.90;;;;;;;20.38;37.64;100286.09;16112229;19;129252;-53
2023/12/12 09:36:34;;;;;;;2.83;0.82;;;;;;;20.26;37.89;100289.13;16109574;19;130513;-52
2023/12/12 09:41:59;;;;;;;3.25;0.90;;;;;;;20.16;38.05;100276.06;16111998;19;129939;-51
2023/12/12 09:47:21;;;;;;;3.35;1.05;;;;;;;20.02;38.02;100258.22;16112782;19;131963;-50
2023/12/12 09:52:47;;;;;;;5.43;1.15;;;;;;;19.89;37.73;100253.97;16111109;19;131193;-51
2023/12/12 09:58:09;;;;;;;6.32;1.25;;;;;;;19.79;38.15;100254.78;16109615;19;129600;-50
2023/12/12 10:03:32;;;;;;;9.32;1.33;;;;;;;19.68;37.99;100238.09;16108096;19;131529;-51
2023/12/12 10:08:54;;;;;;;9.88;1.52;;;;;;;19.63;37.96;100240.81;16112263;19;129515;-50
2023/12/12 10:14:38;;;;;;;3.40;1.33;;;;;;;19.55;38.30;100232.16;16110217;19;134848;-47
2023/12/12 10:20:04;;;;;;;5.88;1.30;;;;;;;19.46;38.62;100217.97;16113029;19;129914;-51
2023/12/12 10:25:27;;;;;;;;;;;;;;;19.40;38.20;100213.50;16110769;19;130040;-46
2023/12/12 10:30:52;;;;;;;7.55;1.38;;;;;;;19.38;38.29;100209.06;16110163;19;129425;-51
2023/12/12 10:36:14;;;;;;;6.13;0.93;;;;;;;19.35;38.59;100183.81;16107188;19;131556;-49
2023/12/12 10:41:36;;;;;;;7.00;1.25;;;;;;;19.37;38.57;100176.06;16109491;19;129498;-51
2023/12/12 10:47:03;;;;;;;9.68;1.23;;;;;;;19.38;38.38;100161.91;16111423;19;130431;-49
2023/12/12 10:52:25;;;;;;;3.65;1.30;;;;;;;19.43;38.68;100143.63;16108824;19;130547;-50
2023/12/12 10:57:48;;;;;;;7.30;1.02;;;;;;;19.52;38.30;100144.78;16108437;19;131216;-51
2023/12/12 11:03:10;;;;;;;5.22;0.95;;;;;;;19.66;38.56;100145.94;16106144;19;132248;-47
2023/12/12 11:08:32;;;;;;;2.47;0.98;;;;;;;19.83;38.09;100134.59;16126009;19;130637;-50
2023/12/12 11:13:55;;;;;;;4.97;1.08;;;;;;;19.99;38.24;100129.94;16123989;19;131284;-49
2023/12/12 11:19:18;;;;;;;2.35;0.77;;;;;;;20.12;37.97;100124.97;16123479;19;129519;-49
2023/12/12 11:25:01;;;;;;;9.82;1.13;;;;;;;20.36;37.77;100116.94;16125923;19;131258;-49
2023/12/12 11:30:39;;;;;;;7.18;0.85;;;;;;;20.54;37.27;100112.75;16117723;19;130678;-43
2023/12/12 11:36:01;;;;;;;4.63;0.63;;;;;;;20.60;37.02;100103.28;16111315;19;131138;-50
2023/12/12 11:41:25;;;;;;;10.68;1.00;;;;;;;20.61;37.24;100081.91;16115922;19;130068;-49
2023/12/12 11:46:47;;;;;;;8.25;1.17;;;;;;;20.63;37.03;100068.53;16115897;19;130815;-45
2023/12/12 11:52:09;;;;;;;10.60;1.17;;;;;;;20.65;36.97;100068.28;16119175;19;131309;-46
2023/12/12 11:57:31;;;;;;;3.25;0.80;;;;;;;20.66;36.87;100056.06;16118944;19;130063;-45
2023/12/12 12:02:53;;;;;;;2.80;0.93;;;;;;;20.64;36.74;100052.72;16118040;19;130138;-45
2023/12/12 12:08:15;;;;;;;3.88;0.90;;;;;;;20.58;36.99;100047.16;16115483;19;132124;-46
2023/12/12 12:13:43;;;;;;;3.83;0.82;;;;;;;20.51;37.03;100043.84;16116618;19;129898;-44
2023/12/12 12:19:30;;;;;;;5.45;0.90;;;;;;;20.44;37.26;100043.28;16115285;19;130741;-44
2023/12/12 12:24:56;;;;;;;4.05;0.80;;;;;;;20.31;37.24;100019.72;16116668;19;130796;-50
2023/12/12 12:30:20;;;;;;;2.25;0.90;;;;;;;20.23;37.51;100006.41;16114034;19;130626;-47
2023/12/12 12:35:51;;;;;;;4.30;0.57;;;;;;;20.20;37.88;99999.44;16116280;19;129860;-49
2023/12/12 12:41:23;;;;;;;6.20;0.70;;;;;;;20.19;37.95;100003.31;16116531;19;129324;-50
2023/12/12 12:46:52;;;;;;;3.88;0.90;;;;;;;20.16;37.82;100000.28;16115810;19;130266;-49
2023/12/12 12:52:13;;;;;;;2.13;0.70;;;;;;;20.14;37.76;99995.00;16119606;19;129226;-46
2023/12/12 12:57:36;;;;;;;2.38;0.70;;;;;;;20.11;38.00;99990.00;16120051;19;129512;-50
2023/12/12 13:02:58;;;;;;;4.15;0.70;;;;;;;20.11;38.25;99967.81;16120295;19;129906;-44
2023/12/12 13:08:20;;;;;;;1.42;0.70;;;;;;;20.08;37.92;99969.19;16111132;19;130049;-43
2023/12/12 13:13:43;;;;;;;1.58;0.50;;;;;;;20.06;37.90;99949.22;16106420;19;129700;-48
2023/12/12 13:19:05;;;;;;;5.50;0.80;;;;;;;20.05;38.43;99943.94;16109753;19;131574;-45
2023/12/12 13:24:28;;;;;;;6.43;0.75;;;;;;;19.97;38.32;99934.19;16105932;19;131438;-50
2023/12/12 13:29:50;;;;;;;3.60;0.52;;;;;;;19.94;38.60;99930.03;16111954;19;130897;-47
2023/12/12 13:35:14;;;;;;;4.57;0.55;;;;;;;19.95;38.84;99925.31;16111295;19;130936;-48
2023/12/12 13:40:52;;;;;;;1.60;0.60;;;;;;;19.95;39.35;99915.03;16106933;19;130353;-49
2023/12/12 13:46:14;;;;;;;2.25;0.57;;;;;;;19.95;39.12;99903.94;16106516;19;129702;-48
2023/12/12 13:51:36;;;;;;;3.08;0.50;;;;;;;19.96;39.75;99902.81;16106777;19;129879;-49
2023/12/12 13:57:09;;;;;;;2.75;0.70;;;;;;;19.95;39.50;99894.78;16111430;19;130040;-49
2023/12/12 14:02:35;;;;;;;4.93;0.60;;;;;;;19.95;39.89;99900.34;16109730;19;129480;-50
2023/12/12 14:07:59;;;;;;;2.33;0.63;;;;;;;19.95;40.00;99887.28;16108222;19;130528;-47
2023/12/12 14:13:22;;;;;;;5.00;0.60;;;;;;;19.95;40.17;99887.28;16112546;19;129537;-51
2023/12/12 14:18:43;;;;;;;3.08;0.52;;;;;;;20.13;40.02;99879.50;16114740;19;131504;-51
2023/12/12 14:24:06;;;;;;;0.82;0.40;;;;;;;20.37;40.26;99867.75;16114208;19;130182;-46
2023/12/12 14:29:27;;;;;;;0.65;0.38;;;;;;;20.64;39.98;99869.31;16110687;19;129492;-50
2023/12/12 14:34:49;;;;;;;1.15;0.50;;;;;;;20.88;39.78;99859.19;16108466;19;129681;-49
2023/12/12 14:40:11;;;;;;;3.08;0.50;;;;;;;21.12;39.65;99861.25;16105162;19;130974;-48
2023/12/12 14:45:33;;;;;;;0.95;0.38;;;;;;;21.29;39.55;99851.69;16110355;19;130620;-49
2023/12/12 14:50:55;;;;;;;1.48;0.40;;;;;;;21.43;39.33;99851.81;16108576;19;130404;-46
2023/12/12 14:56:17;;;;;;;0.80;0.50;;;;;;;21.54;39.40;99842.28;16111625;19;130612;-49
2023/12/12 15:01:39;;;;;;;1.42;0.32;;;;;;;21.60;39.16;99852.25;16110880;19;129377;-50
2023/12/12 15:07:01;;;;;;;1.35;0.40;;;;;;;21.57;39.22;99857.56;16110831;19;129329;-48
2023/12/12 15:12:23;;;;;;;1.17;0.40;;;;;;;21.48;39.42;99851.75;16108861;19;129355;-48
2023/12/12 15:17:48;;;;;;;0.65;0.30;;;;;;;21.33;39.51;99847.16;16108156;19;130064;-48
2023/12/12 15:23:11;;;;;;;3.50;0.50;;;;;;;21.13;39.78;99856.50;16104591;19;130861;-48
2023/12/12 15:28:33;;;;;;;0.82;0.35;;;;;;;20.96;39.75;99865.25;16106768;19;129617;-52
2023/12/12 15:33:55;;;;;;;1.48;0.50;;;;;;;20.80;40.11;99833.94;16105267;19;132187;-47
2023/12/12 15:39:17;;;;;;;0.80;0.22;;;;;;;20.65;40.21;99835.66;16104951;19;130196;-48
2023/12/12 15:44:39;;;;;;;0.80;0.50;;;;;;;20.49;40.65;99831.31;16106733;19;130884;-47
2023/12/12 15:50:01;;;;;;;0.50;0.30;;;;;;;20.35;40.74;99795.84;16111169;19;135708;-48
2023/12/12 15:55:23;;;;;;;1.13;0.50;;;;;;;20.23;41.43;99810.03;16122929;19;129564;-48
2023/12/12 16:00:45;;;;;;;0.40;0.30;;;;;;;20.19;41.45;99797.81;16118499;19;129844;-48
2023/12/12 16:06:07;;;;;;;1.40;0.40;;;;;;;20.18;41.40;99790.63;16120939;19;129507;-51
2023/12/12 16:11:29;;;;;;;2.85;0.40;;;;;;;20.17;41.92;99782.56;16119599;19;130107;-53
2023/12/12 16:16:51;;;;;;;1.35;0.50;;;;;;;20.14;41.63;99770.09;16121839;19;131621;-51
2023/12/12 16:22:14;;;;;;;3.85;0.60;;;;;;;20.12;41.42;99764.00;16119361;19;130971;-49
2023/12/12 16:27:36;;;;;;;11.25;1.52;;;;;;;20.11;41.23;99762.34;16124754;19;130865;-52
2023/12/12 16:32:59;;;;;;;7.45;1.95;;;;;;;20.09;41.15;99759.00;16114493;19;129550;-50
2023/12/12 16:38:22;;;;;;;9.02;1.85;;;;;;;20.13;41.10;99749.81;16112902;19;131342;-48
2023/12/12 16:43:46;;;;;;;8.23;1.80;;;;;;;20.19;41.52;99736.72;16110853;19;131168;-48
2023/12/12 16:49:09;;;;;;;12.63;1.90;;;;;;;20.22;41.69;99735.34;16115019;19;129880;-48
2023/12/12 16:54:31;;;;;;;9.20;1.92;;;;;;;20.21;41.68;99717.84;16114738;19;130621;-48
2023/12/12 16:59:53;;;;;;;6.80;2.03;;;;;;;20.18;42.05;99710.09;16116934;19;129457;-51
2023/12/12 17:05:16;;;;;;;8.80;1.80;;;;;;;20.14;42.12;99720.94;16115779;19;130956;-53
2023/12/12 17:10:38;;;;;;;6.13;2.00;;;;;;;20.06;42.42;99707.66;16115664;19;130421;-47
2023/12/12 17:16:00;;;;;;;9.80;1.95;;;;;;;19.97;42.25;99712.94;16107159;19;131012;-51
2023/12/12 17:21:22;;;;;;;6.20;1.70;;;;;;;19.88;42.29;99708.28;16111891;19;130600;-48
2023/12/12 17:26:44;;;;;;;9.30;1.60;;;;;;;19.83;42.56;99711.91;16110967;19;129664;-50
2023/12/12 17:32:10;;;;;;;7.40;1.75;;;;;;;19.77;42.42;99697.22;16106012;19;130424;-48
2023/12/12 17:37:32;;;;;;;6.30;1.92;;;;;;;19.73;42.59;99695.28;16107117;19;130836;-52
2023/12/12 17:42:55;;;;;;;6.45;1.55;;;;;;;19.66;42.61;99699.22;16109800;19;129800;-52
2023/12/12 17:48:18;;;;;;;6.15;1.80;;;;;;;19.61;43.50;99690.91;16106585;19;130171;-51
2023/12/12 17:53:40;;;;;;;6.25;1.48;;;;;;;19.73;43.05;99684.19;16109303;19;130698;-50
2023/12/12 17:59:02;;;;;;;7.32;1.85;;;;;;;19.95;43.33;99681.84;16111864;19;129874;-51
2023/12/12 18:04:27;;;;;;;17.13;2.17;;;;;;;20.20;42.94;99677.31;16113321;19;131182;-50
2023/12/12 18:09:52;;;;;;;7.13;1.77;;;;;;;20.55;43.02;99667.09;16112184;19;131959;-47
2023/12/12 18:15:14;;;;;;;13.20;1.95;;;;;;;20.97;42.46;99661.16;16109056;19;130740;-51
2023/12/12 18:20:40;;;;;;;8.52;2.05;;;;;;;21.37;42.33;99654.34;16110606;19;130697;-47
2023/12/12 18:26:02;;;;;;;11.43;1.70;;;;;;;21.62;42.19;99666.31;16110915;19;130280;-53
2023/12/12 18:31:27;;;;;;;11.10;2.08;;;;;;;21.67;42.61;99666.25;16108597;19;129746;-46
2023/12/12 18:36:49;;;;;;;;;;;;;;;21.60;42.69;99659.41;16106297;19;131460;-46
2023/12/12 18:42:11;;;;;;;8.32;1.63;;;;;;;21.53;42.70;99654.19;16106685;19;132750;-48
2023/12/12 18:47:33;;;;;;;7.18;1.83;;;;;;;21.40;43.09;99644.59;16105712;19;130961;-49
2023/12/12 18:52:56;;;;;;;15.90;2.03;;;;;;;21.25;43.14;99637.22;16105059;19;129535;-48
2023/12/12 18:58:18;;;;;;;33.95;2.60;;;;;;;21.11;43.65;99630.75;16106759;19;130720;-51
2023/12/12 19:03:40;;;;;;;20.30;2.83;;;;;;;20.99;43.58;99631.94;16104783;19;131145;-50
2023/12/12 19:09:03;;;;;;;20.02;2.58;;;;;;;20.97;44.26;99633.38;16106877;19;129293;-45
2023/12/12 19:14:25;;;;;;;21.15;2.50;;;;;;;20.96;44.14;99624.22;16107934;19;130190;-49
2023/12/12 19:19:47;;;;;;;18.63;2.22;;;;;;;20.98;44.17;99616.41;16106298;19;129845;-47
2023/12/12 19:25:10;;;;;;;12.95;2.30;;;;;;;21.15;43.79;99617.88;16112982;19;130148;-48
2023/12/12 19:30:32;;;;;;;13.95;1.83;;;;;;;21.42;43.38;99616.47;16124789;19;131073;-45
2023/12/12 19:35:55;;;;;;;13.27;1.75;;;;;;;21.71;43.56;99623.91;16118686;19;129592;-48
2023/12/12 19:41:17;;;;;;;13.80;1.80;;;;;;;21.95;43.02;99612.69;16117167;19;130683;-52
2023/12/12 19:46:46;;;;;;;10.63;2.30;;;;;;;22.18;42.81;99610.97;16121374;19;130754;-48
2023/12/12 19:52:08;;;;;;;14.23;1.50;;;;;;;22.38;43.06;99626.56;16118217;19;131554;-46
2023/12/12 19:57:30;;;;;;;13.68;1.95;;;;;;;22.53;42.20;99633.84;16112302;19;130569;-46
2023/12/12 20:02:52;;;;;;;9.82;2.10;;;;;;;22.71;42.32;99650.81;16113187;19;130073;-49
2023/12/12 20:08:14;;;;;;;13.05;1.60;;;;;;;22.83;42.23;99625.25;16113584;19;130095;-52
2023/12/12 20:13:36;;;;;;;8.43;1.30;;;;;;;22.93;42.05;99627.06;16117080;19;132208;-49
2023/12/12 20:19:00;;;;;;;12.00;1.92;;;;;;;23.01;42.23;99641.13;16114477;19;131592;-48
2023/12/12 20:24:22;;;;;;;11.32;1.67;;;;;;;23.02;41.93;99662.28;16111689;19;130720;-49
2023/12/12 20:29:45;;;;;;;10.98;1.48;;;;;;;22.92;42.44;99653.28;16110755;19;130946;-49
2023/12/12 20:35:08;;;;;;;4.22;1.42;;;;;;;22.78;42.21;99651.25;16113223;19;131282;-49
2023/12/12 20:40:30;;;;;;;13.27;1.42;;;;;;;22.61;42.47;99646.25;16108477;19;131280;-50
2023/12/12 20:45:52;;;;;;;8.35;1.58;;;;;;;22.44;42.77;99656.00;16110378;19;130596;-48
2023/12/12 20:51:15;;;;;;;14.15;1.80;;;;;;;22.26;42.94;99668.00;16105223;19;131394;-48
2023/12/12 20:56:41;;;;;;;8.10;1.52;;;;;;;22.08;43.12;99667.66;16113029;19;130725;-50
2023/12/12 21:02:03;;;;;;;14.10;1.65;;;;;;;21.92;43.22;99663.41;16113851;19;129752;-53
2023/12/12 21:07:25;;;;;;;6.88;1.55;;;;;;;21.77;43.59;99648.59;16116917;19;131858;-50
2023/12/12 21:12:47;;;;;;;8.25;1.67;;;;;;;21.62;43.40;99654.38;16110247;19;129668;-47
2023/12/12 21:18:09;;;;;;;10.02;1.83;;;;;;;21.45;43.35;99655.63;16113791;19;129990;-51
2023/12/12 21:23:32;;;;;;;6.93;1.45;;;;;;;21.31;43.81;99649.13;16107992;19;131119;-51
2023/12/12 21:28:54;;;;;;;5.60;1.35;;;;;;;21.20;43.67;99642.88;16105866;19;130216;-49
2023/12/12 21:34:15;;;;;;;4.93;1.30;;;;;;;21.09;43.65;99642.13;16105251;19;130842;-51
2023/12/12 21:39:37;;;;;;;4.88;1.40;;;;;;;20.96;44.02;99631.69;16109925;19;130205;-46
2023/12/12 21:45:00;;;;;;;7.55;1.58;;;;;;;20.85;44.21;99634.59;16110018;19;130692;-52
2023/12/12 21:50:22;;;;;;;4.75;0.90;;;;;;;20.74;44.19;99625.47;16107297;19;130679;-52
2023/12/12 21:55:44;;;;;;;4.82;1.30;;;;;;;20.67;44.21;99636.13;16107413;19;130531;-48
2023/12/12 22:01:10;;;;;;;4.13;0.88;;;;;;;20.63;43.83;99634.22;16110071;19;129660;-51
2023/12/12 22:06:37;;;;;;;6.20;0.98;;;;;;;20.54;44.15;99629.31;16104673;19;130586;-51
2023/12/12 22:12:00;;;;;;;3.13;0.90;;;;;;;20.47;44.02;99631.56;16106042;19;129681;-46
2023/12/12 22:17:22;;;;;;;4.25;1.02;;;;;;;20.39;44.33;99623.88;16102727;19;129545;-46
2023/12/12 22:22:44;;;;;;;4.45;1.10;;;;;;;20.31;44.16;99628.09;16102460;19;131984;-49
2023/12/12 22:28:07;;;;;;;7.50;1.00;;;;;;;20.24;43.93;99633.16;16104110;19;129853;-49
2023/12/12 22:33:29;;;;;;;5.18;1.13;;;;;;;20.18;44.19;99625.97;16103213;19;129334;-53
2023/12/12 22:38:51;;;;;;;3.88;1.00;;;;;;;20.14;43.86;99628.50;16107316;19;130627;-52
2023/12/12 22:44:14;;;;;;;6.97;1.10;;;;;;;20.09;44.38;99615.47;16101919;19;129773;-50
2023/12/12 22:49:36;;;;;;;7.03;1.27;;;;;;;20.04;43.96;99621.06;16099851;19;134734;-48
2023/12/12 22:54:58;;;;;;;3.58;0.75;;;;;;;20.02;44.33;99619.69;16099931;19;129982;-53
2023/12/12 23:00:32;;;;;;;2.60;0.70;;;;;;;19.97;44.35;99626.88;16108943;19;129648;-48
2023/12/12 23:05:54;;;;;;;2.25;0.88;;;;;;;19.93;44.35;99617.50;16117598;19;130882;-50
2023/12/12 23:11:17;;;;;;;2.95;0.82;;;;;;;19.87;44.43;99623.38;16120511;19;129522;-49
2023/12/12 23:16:39;;;;;;;1.92;0.80;;;;;;;19.86;43.88;99622.53;16125273;19;129664;-46
2023/12/12 23:22:02;;;;;;;4.55;0.93;;;;;;;19.83;44.03;99623.94;16123359;19;135754;-48
2023/12/12 23:27:24;;;;;;;2.58;0.80;;;;;;;19.81;43.84;99614.25;16115902;19;130241;-49
2023/12/12 23:32:46;;;;;;;2.35;0.80;;;;;;;19.78;43.83;99609.25;16110909;19;132638;-47
2023/12/12 23:38:08;;;;;;;4.03;0.93;;;;;;;19.75;44.18;99587.63;16118330;19;131146;-47
2023/12/12 23:43:31;;;;;;;2.22;0.60;;;;;;;19.72;44.30;99599.28;16114657;19;130928;-51
2023/12/12 23:48:53;;;;;;;2.17;0.50;;;;;;;19.68;44.17;99585.16;16116597;19;131243;-50
2023/12/12 23:54:15;;;;;;;1.70;0.60;;;;;;;19.64;43.94;99582.13;16117168;19;130097;-51
2023/12/12 23:59:37;;;;;;;4.25;0.75;;;;;;;19.61;43.80;99571.59;16116788;19;131529;-51
